createdAt,value
2023-03-19T00:00:26.991Z,7.16
2023-03-19T00:05:19.377Z,7.13
2023-03-19T00:10:11.726Z,7.07
2023-03-19T00:15:03.976Z,6.93
2023-03-19T00:19:56.223Z,6.87
2023-03-19T00:24:48.622Z,6.81
2023-03-19T00:29:40.474Z,6.76
2023-03-19T00:34:32.163Z,6.73
2023-03-19T00:39:24.932Z,6.70
2023-03-19T00:44:30.333Z,6.63
2023-03-19T00:49:22.480Z,6.59
2023-03-19T00:54:14.224Z,6.52
2023-03-19T00:59:06.894Z,6.47
2023-03-19T01:03:59.201Z,6.38
2023-03-19T01:08:50.918Z,6.30
2023-03-19T01:13:42.893Z,6.26
2023-03-19T01:18:34.960Z,6.27
2023-03-19T01:23:26.835Z,6.27
2023-03-19T01:28:19.627Z,6.26
2023-03-19T01:33:11.349Z,6.30
2023-03-19T01:38:03.052Z,6.33
2023-03-19T01:43:17.514Z,6.28
2023-03-19T01:48:37.139Z,6.25
2023-03-19T01:53:32.773Z,6.20
2023-03-19T01:58:25.966Z,6.15
2023-03-19T02:03:17.859Z,6.14
2023-03-19T02:08:13.008Z,6.15
2023-03-19T02:13:04.834Z,6.12
2023-03-19T02:17:56.819Z,6.07
2023-03-19T02:23:21.761Z,6.00
2023-03-19T02:28:16.995Z,5.99
2023-03-19T02:33:16.257Z,5.94
2023-03-19T02:38:08.008Z,5.88
2023-03-19T02:42:59.815Z,5.88
2023-03-19T02:47:51.542Z,5.88
2023-03-19T02:52:43.188Z,5.88
2023-03-19T02:57:34.779Z,5.90
2023-03-19T03:02:26.532Z,5.91
2023-03-19T03:07:18.255Z,5.89
2023-03-19T03:12:10.050Z,5.89
2023-03-19T03:17:02.112Z,5.83
2023-03-19T03:21:53.952Z,5.76
2023-03-19T03:26:45.759Z,5.76
2023-03-19T03:31:37.510Z,5.76
2023-03-19T03:36:29.334Z,5.74
2023-03-19T03:41:21.049Z,5.71
2023-03-19T03:46:13.815Z,5.65
2023-03-19T03:51:05.654Z,5.57
2023-03-19T03:55:57.375Z,5.60
2023-03-19T04:00:49.307Z,5.63
2023-03-19T04:05:41.046Z,5.64
2023-03-19T04:10:35.780Z,5.68
2023-03-19T04:15:27.506Z,5.71
2023-03-19T04:20:19.279Z,5.75
2023-03-19T04:25:11.705Z,5.77
2023-03-19T04:30:04.415Z,5.76
2023-03-19T04:34:56.340Z,5.77
2023-03-19T04:39:47.959Z,5.78
2023-03-19T04:44:39.579Z,5.81
2023-03-19T04:49:31.525Z,5.79
2023-03-19T04:54:23.873Z,5.82
2023-03-19T04:59:15.436Z,5.84
2023-03-19T05:04:08.414Z,5.87
2023-03-19T05:09:00.874Z,5.89
2023-03-19T05:13:52.584Z,5.86
2023-03-19T05:18:44.728Z,5.85
2023-03-19T05:23:36.348Z,5.83
2023-03-19T05:28:28.144Z,5.79
2023-03-19T05:33:19.870Z,5.80
2023-03-19T05:38:11.950Z,5.80
2023-03-19T05:43:03.796Z,5.79
2023-03-19T05:47:55.420Z,5.79
2023-03-19T05:52:47.057Z,5.81
2023-03-19T05:57:38.676Z,5.80
2023-03-19T06:02:30.386Z,5.79
2023-03-19T06:07:21.984Z,5.80
2023-03-19T06:12:13.715Z,5.77
2023-03-19T06:17:05.642Z,5.78
2023-03-19T06:21:57.271Z,5.81
2023-03-19T06:26:48.944Z,5.80
2023-03-19T06:31:41.819Z,5.82
2023-03-19T06:36:34.771Z,5.87
2023-03-19T06:41:26.582Z,5.87
2023-03-19T06:46:18.258Z,5.87
2023-03-19T06:51:09.900Z,5.87
2023-03-19T06:56:01.530Z,5.90
2023-03-19T07:00:53.928Z,5.94
2023-03-19T07:05:45.695Z,5.98
2023-03-19T07:10:38.402Z,6.00
2023-03-19T07:15:30.139Z,6.04
2023-03-19T07:20:21.815Z,6.09
2023-03-19T07:25:13.474Z,6.17
2023-03-19T07:30:05.481Z,6.24
2023-03-19T07:34:57.160Z,6.32
2023-03-19T07:39:48.744Z,6.35
2023-03-19T07:44:40.728Z,6.36
2023-03-19T07:49:33.634Z,6.47
2023-03-19T07:54:25.549Z,6.54
2023-03-19T07:59:17.119Z,6.55
2023-03-19T08:04:08.813Z,6.65
2023-03-19T08:09:00.891Z,6.70
2023-03-19T08:13:52.539Z,6.78
2023-03-19T08:18:44.143Z,6.85
2023-03-19T08:23:35.801Z,6.93
2023-03-19T08:28:27.465Z,6.95
2023-03-19T08:33:19.129Z,6.99
2023-03-19T08:38:11.258Z,6.98
2023-03-19T08:43:04.069Z,7.10
2023-03-19T08:47:58.009Z,7.20
2023-03-19T08:52:49.864Z,7.33
2023-03-19T08:57:41.592Z,7.43
2023-03-19T09:02:33.298Z,7.51
2023-03-19T09:07:25.114Z,7.59
2023-03-19T09:12:17.858Z,7.72
2023-03-19T09:17:10.439Z,7.87
2023-03-19T09:22:02.078Z,8.03
2023-03-19T09:26:53.743Z,8.24
2023-03-19T09:31:45.592Z,8.42
2023-03-19T09:36:38.021Z,8.53
2023-03-19T09:42:03.986Z,8.53
2023-03-19T09:47:26.154Z,8.55
2023-03-19T09:52:59.977Z,8.51
2023-03-19T09:57:55.401Z,8.51
2023-03-19T10:02:51.150Z,8.53
2023-03-19T10:08:11.432Z,8.60
2023-03-19T10:13:21.582Z,8.68
2023-03-19T10:18:19.921Z,8.81
2023-03-19T10:23:37.930Z,8.92
2023-03-19T10:28:30.532Z,8.87
2023-03-19T10:33:32.357Z,8.84
2023-03-19T10:38:26.521Z,8.78
2023-03-19T10:43:23.903Z,8.73
2023-03-19T10:48:17.363Z,8.64
2023-03-19T10:53:14.966Z,8.66
2023-03-19T10:58:16.804Z,8.72
2023-03-19T11:03:30.179Z,8.77
2023-03-19T11:08:34.911Z,8.88
2023-03-19T11:13:27.747Z,9.01
2023-03-19T11:18:22.546Z,9.09
2023-03-19T11:23:16.669Z,9.14
2023-03-19T11:28:19.795Z,9.23
2023-03-19T11:33:23.654Z,9.25
2023-03-19T11:38:45.687Z,9.39
2023-03-19T11:43:51.052Z,9.60
2023-03-19T11:48:57.853Z,9.84
2023-03-19T11:54:07.877Z,10.11
2023-03-19T11:59:27.861Z,10.50
2023-03-19T12:04:22.295Z,10.69
2023-03-19T12:09:34.716Z,10.81
2023-03-19T12:14:42.421Z,10.74
2023-03-19T12:20:01.124Z,10.83
2023-03-19T12:24:55.360Z,11.06
2023-03-19T12:30:09.381Z,11.29
2023-03-19T12:35:21.023Z,11.44
2023-03-19T12:40:21.643Z,11.51
2023-03-19T12:45:33.792Z,11.57
2023-03-19T12:50:27.422Z,11.60
2023-03-19T12:55:19.167Z,11.59
2023-03-19T13:00:20.411Z,11.65
2023-03-19T13:05:26.865Z,11.68
2023-03-19T13:10:21.310Z,11.72
2023-03-19T13:15:35.818Z,11.74
2023-03-19T13:20:39.421Z,11.70
2023-03-19T13:25:59.211Z,11.78
2023-03-19T13:31:06.343Z,11.87
2023-03-19T13:36:14.721Z,11.98
2023-03-19T13:41:26.512Z,12.14
2023-03-19T13:46:18.225Z,12.26
2023-03-19T13:51:12.869Z,12.47
2023-03-19T13:56:26.273Z,12.50
2023-03-19T14:01:26.313Z,12.43
2023-03-19T14:06:40.325Z,12.41
2023-03-19T14:11:35.999Z,12.40
2023-03-19T14:16:37.091Z,12.42
2023-03-19T14:21:55.980Z,12.49
2023-03-19T14:26:47.687Z,12.52
2023-03-19T14:31:39.363Z,12.57
2023-03-19T14:36:31.666Z,12.60
2023-03-19T14:41:27.657Z,12.69
2023-03-19T14:46:34.893Z,12.58
2023-03-19T14:51:51.109Z,12.54
2023-03-19T14:56:43.933Z,12.48
2023-03-19T15:01:41.523Z,12.45
2023-03-19T15:06:41.948Z,12.52
2023-03-19T15:11:48.903Z,12.50
2023-03-19T15:16:49.535Z,12.46
2023-03-19T15:21:41.155Z,12.40
2023-03-19T15:26:37.983Z,12.37
2023-03-19T15:31:53.913Z,12.37
2023-03-19T15:37:15.434Z,12.31
2023-03-19T15:42:07.235Z,12.29
2023-03-19T15:47:02.356Z,12.23
2023-03-19T15:51:59.643Z,12.14
2023-03-19T15:56:52.388Z,12.04
2023-03-19T16:01:44.215Z,11.98
2023-03-19T16:06:40.127Z,11.89
2023-03-19T16:11:37.769Z,11.86
2023-03-19T16:16:32.863Z,11.83
2023-03-19T16:21:36.512Z,11.77
2023-03-19T16:26:48.776Z,11.57
2023-03-19T16:31:46.189Z,11.42
2023-03-19T16:36:37.835Z,11.25
2023-03-19T16:41:33.892Z,11.07
2023-03-19T16:46:26.222Z,10.95
2023-03-19T16:51:21.203Z,10.82
2023-03-19T16:56:15.213Z,10.67
2023-03-19T17:01:17.264Z,10.50
2023-03-19T17:06:13.445Z,10.42
2023-03-19T17:11:06.193Z,10.29
2023-03-19T17:16:02.829Z,10.16
2023-03-19T17:21:02.224Z,10.03
2023-03-19T17:25:54.579Z,9.89
2023-03-19T17:30:47.216Z,9.81
2023-03-19T17:35:39.048Z,9.75
2023-03-19T17:40:30.839Z,9.64
2023-03-19T17:45:29.886Z,9.58
2023-03-19T17:50:24.556Z,9.48
2023-03-19T17:55:19.648Z,9.41
2023-03-19T18:00:12.457Z,9.29
2023-03-19T18:05:04.557Z,9.19
2023-03-19T18:09:56.257Z,9.14
2023-03-19T18:14:47.840Z,9.10
2023-03-19T18:19:39.524Z,8.99
2023-03-19T18:24:31.140Z,8.91
2023-03-19T18:29:22.957Z,8.86
2023-03-19T18:34:16.661Z,8.79
2023-03-19T18:39:16.312Z,8.71
2023-03-19T18:44:08.792Z,8.60
2023-03-19T18:49:03.536Z,8.55
2023-03-19T18:53:56.205Z,8.54
2023-03-19T18:58:48.916Z,8.47
2023-03-19T19:03:40.616Z,8.40
2023-03-19T19:08:32.248Z,8.39
2023-03-19T19:13:30.310Z,8.37
2023-03-19T19:18:23.088Z,8.33
2023-03-19T19:23:15.801Z,8.32
2023-03-19T19:28:20.620Z,8.29
2023-03-19T19:33:17.100Z,8.29
2023-03-19T19:38:08.761Z,8.24
2023-03-19T19:43:00.515Z,8.24
2023-03-19T19:47:52.241Z,8.21
2023-03-19T19:52:44.016Z,8.25
2023-03-19T19:57:35.844Z,8.27
2023-03-19T20:02:29.844Z,8.25
2023-03-19T20:07:22.008Z,8.22
2023-03-19T20:12:18.142Z,8.16
2023-03-19T20:17:15.504Z,8.13
2023-03-19T20:22:07.261Z,8.03
2023-03-19T20:27:00.947Z,7.97
2023-03-19T20:31:52.715Z,7.95
2023-03-19T20:36:44.394Z,7.92
2023-03-19T20:41:36.077Z,7.83
2023-03-19T20:46:28.216Z,7.81
2023-03-19T20:51:24.828Z,7.73
2023-03-19T20:56:18.724Z,7.63
2023-03-19T21:01:11.711Z,7.57
2023-03-19T21:06:13.322Z,7.51
2023-03-19T21:11:05.533Z,7.47
2023-03-19T21:15:57.424Z,7.38
2023-03-19T21:20:56.999Z,7.33
2023-03-19T21:25:49.314Z,7.25
2023-03-19T21:30:43.050Z,7.17
2023-03-19T21:35:34.996Z,7.07
2023-03-19T21:40:30.626Z,6.98
2023-03-19T21:45:35.663Z,6.88
2023-03-19T21:50:27.423Z,6.84
2023-03-19T21:55:19.167Z,6.85
2023-03-19T22:00:14.012Z,6.82
2023-03-19T22:05:21.021Z,6.79
2023-03-19T22:10:12.895Z,6.73
2023-03-19T22:15:07.226Z,6.75
2023-03-19T22:19:58.858Z,6.70
2023-03-19T22:24:50.702Z,6.63
2023-03-19T22:29:43.006Z,6.51
2023-03-19T22:34:34.699Z,6.47
2023-03-19T22:39:26.300Z,6.47
2023-03-19T22:44:26.281Z,6.49
2023-03-19T22:49:19.028Z,6.49
2023-03-19T22:54:13.761Z,6.40
2023-03-19T22:59:05.600Z,6.35
2023-03-19T23:03:57.564Z,6.28
2023-03-19T23:08:50.782Z,6.21
2023-03-19T23:13:42.490Z,6.17
2023-03-19T23:18:36.736Z,6.20
2023-03-19T23:23:29.541Z,6.18
2023-03-19T23:28:29.309Z,6.19
2023-03-19T23:33:22.523Z,6.18
2023-03-19T23:38:15.237Z,6.16
2023-03-19T23:43:15.104Z,6.21
2023-03-19T23:48:13.247Z,6.20
2023-03-19T23:53:04.778Z,6.21
2023-03-19T23:57:58.205Z,6.18
